Historical Data

TheSutherlands

Weather at Humberside Airport

Current Weather from Humberside Airport

The information displayed on this page is from the METAR reports produced by Humberside Airport. Note that there are times when these are not generated.

Weather Report

Coded Weather Report: 2020/10/25 02:20 EGNJ 250220Z AUTO 20013KT 9999 NCD 08/08 Q0992

Report issued: 2020/10/25 at 02:20 UTC

Weather: Code: AUTO
Wind: moderate breeze from the south (200 degrees) at 13 knots (15 mph, 24 kph, Force 4)
Visibility: 10km or more
Weather: Code: NCD
Temperature: 8 C
Dewpoint: 8 C
Humidity: 100%
Pressure: 0992 hPa